Time;durP1;ratioP1;P1;durP2;ratioP2;P2;SDS_P1;SDS_P2;PMS_P1;PMS_P2;Temp;Humidity;BMP_temperature;BMP_pressure;BME280_temperature;BME280_humidity;BME280_pressure;Samples;Min_cycle;Max_cycle;Signal;HPM_P1;HPM_P2
2022/04/29 00:00:55;;;;;;;;;45.25;36.75;;;;;12.47;91.00;100129.78;5068754;28;8848;-78
2022/04/29 00:03:24;;;;;;;;;49.25;41.75;;;;;12.45;90.69;100126.31;5047188;28;8855;-79
2022/04/29 00:05:55;;;;;;;;;41.50;38.75;;;;;12.01;93.18;100133.19;4966436;28;8890;-78
2022/04/29 00:08:24;;;;;;;;;10.25;3.50;;;;;12.18;92.85;100135.84;5047197;28;9661;-77
2022/04/29 00:10:53;;;;;;;;;39.00;36.00;;;;;12.52;92.80;100133.28;5030873;28;9028;-78
2022/04/29 00:13:22;;;;;;;;;54.00;43.75;;;;;12.18;92.00;100129.75;5014183;28;8835;-79
2022/04/29 00:15:52;;;;;;;;;50.00;39.50;;;;;12.52;92.14;100129.81;5030874;28;8860;-79
2022/04/29 00:18:22;;;;;;;;;50.50;42.75;;;;;12.04;92.15;100125.38;5030174;28;8848;-79
2022/04/29 00:20:51;;;;;;;;;49.00;41.25;;;;;11.95;93.50;100127.09;5047076;28;9019;-80
2022/04/29 00:23:19;;;;;;;;;53.50;45.25;;;;;11.72;95.05;100125.22;5030611;28;8958;-78
2022/04/29 00:25:48;;;;;;;;;52.50;43.25;;;;;11.61;95.53;100114.72;5030408;28;8887;-79
2022/04/29 00:28:17;;;;;;;;;49.75;41.75;;;;;11.70;95.56;100127.81;5014152;28;8863;-77
2022/04/29 00:30:45;;;;;;;;;39.50;35.25;;;;;11.81;95.03;100122.63;4997791;28;8879;-79
2022/04/29 00:33:16;;;;;;;;;45.00;39.50;;;;;12.06;94.57;100123.63;5046812;28;8856;-79
2022/04/29 00:35:44;;;;;;;;;47.25;39.00;;;;;12.28;94.20;100123.66;5049194;28;8859;-78
2022/04/29 00:38:15;;;;;;;;;48.25;40.25;;;;;12.37;91.83;100120.19;5026528;28;8878;-78
2022/04/29 00:40:45;;;;;;;;;53.25;40.50;;;;;12.51;91.45;100122.81;5006932;28;8888;-80
2022/04/29 00:43:14;;;;;;;;;53.00;44.00;;;;;11.86;93.19;100127.88;4979945;28;8902;-78
2022/04/29 00:45:43;;;;;;;;;56.75;46.25;;;;;11.62;95.39;100126.91;4999008;28;8865;-78
2022/04/29 00:48:12;;;;;;;;;55.00;43.00;;;;;11.56;96.09;100119.03;5007254;28;8871;-79
2022/04/29 00:50:42;;;;;;;;;51.00;43.25;;;;;11.57;96.46;100115.56;4990939;28;8931;-79
2022/04/29 00:53:13;;;;;;;;;53.50;44.50;;;;;11.62;94.59;100119.06;5007124;28;8864;-78
2022/04/29 00:55:45;;;;;;;;;49.50;41.75;;;;;11.78;94.75;100124.38;4975714;28;9665;-78
2022/04/29 00:58:21;;;;;;;;;49.50;42.25;;;;;11.71;95.07;100113.88;5006702;28;8877;-78
2022/04/29 01:00:50;;;;;;;;;53.75;43.50;;;;;11.96;93.35;100116.63;4974577;28;8962;-79
2022/04/29 01:03:20;;;;;;;;;55.00;43.25;;;;;11.75;94.76;100120.00;4994348;28;8865;-79
2022/04/29 01:05:50;;;;;;;;;46.50;41.25;;;;;11.92;94.49;100120.09;5002633;28;9706;-78
2022/04/29 01:08:19;;;;;;;;;56.00;42.00;;;;;12.07;92.62;100129.72;5015256;28;8865;-79
2022/04/29 01:10:49;;;;;;;;;42.50;38.25;;;;;12.27;92.19;100112.34;5015748;28;8937;-78
2022/04/29 01:13:19;;;;;;;;;46.75;38.50;;;;;12.51;92.55;100121.06;5031576;28;8951;-78
2022/04/29 01:15:50;;;;;;;;;47.50;40.50;;;;;12.61;90.13;100119.38;5047917;28;8846;-78
2022/04/29 01:18:20;;;;;;;;;44.00;39.00;;;;;12.61;90.04;100115.00;5048088;28;8965;-80
2022/04/29 01:21:01;;;;;;;;;57.00;44.75;;;;;12.72;89.74;100114.09;5048367;28;8855;-78
2022/04/29 01:23:33;;;;;;;;;42.00;36.75;;;;;12.50;88.69;100123.72;5013903;28;8859;-78
2022/04/29 01:26:02;;;;;;;;;50.50;41.75;;;;;12.47;90.90;100108.88;5048147;28;8931;-79
2022/04/29 01:28:31;;;;;;;;;49.50;42.75;;;;;12.64;90.13;100107.13;5031693;28;8850;-79
2022/04/29 01:31:03;;;;;;;;;53.75;44.75;;;;;11.94;92.20;100110.50;5031289;28;8862;-79
2022/04/29 01:33:33;;;;;;;;;51.75;43.25;;;;;11.84;93.32;100101.75;5064546;28;8858;-80
2022/04/29 01:36:03;;;;;;;;;51.25;41.25;;;;;11.61;95.11;100100.78;5047783;28;8878;-79
2022/04/29 01:38:33;;;;;;;;;55.00;47.00;;;;;11.25;97.38;100097.13;5013934;28;8858;-79
2022/04/29 01:41:04;;;;;;;;;58.00;44.50;;;;;11.14;98.93;100101.44;5031076;28;8916;-79
2022/04/29 01:43:38;;;;;;;;;51.25;43.00;;;;;11.22;99.45;100092.75;5031215;28;8944;-78
2022/04/29 01:46:10;;;;;;;;;50.00;42.00;;;;;11.52;97.78;100085.94;5031017;28;8954;-78
2022/04/29 01:48:59;;;;;;;;;49.75;42.50;;;;;11.60;96.47;100080.75;5047202;28;8890;-78
2022/04/29 01:51:37;;;;;;;;;53.75;42.00;;;;;11.85;94.72;100082.59;5047378;28;8843;-79
2022/04/29 01:54:10;;;;;;;;;53.75;44.00;;;;;12.00;94.51;100086.13;5030942;28;8847;-79
2022/04/29 01:56:40;;;;;;;;;48.25;39.50;;;;;12.03;93.36;100083.53;5047355;28;8864;-79
2022/04/29 01:59:12;;;;;;;;;42.75;38.00;;;;;11.97;94.08;100076.56;5047237;28;8846;-78
2022/04/29 02:01:55;;;;;;;;;49.75;41.25;;;;;12.26;92.41;100076.59;5051001;28;8847;-79
2022/04/29 02:04:24;;;;;;;;;49.25;41.75;;;;;12.42;91.72;100087.06;5030512;28;8854;-79
2022/04/29 02:06:53;;;;;;;;;38.25;35.50;;;;;12.32;91.12;100080.09;5063891;28;8842;-79
2022/04/29 02:09:24;;;;;;;;;45.00;39.00;;;;;12.52;89.89;100082.72;5030301;28;8874;-79
2022/04/29 02:12:05;;;;;;;;;33.25;32.50;;;;;12.12;91.48;100085.28;4997302;28;8897;-78
2022/04/29 02:14:54;;;;;;;;;39.50;36.75;;;;;11.90;92.67;100090.47;4992448;28;8844;-78
2022/04/29 02:17:28;;;;;;;;;48.75;39.75;;;;;11.54;95.10;100079.00;5005955;28;8883;-80
2022/04/29 02:19:56;;;;;;;;;47.25;39.50;;;;;11.39;96.60;100085.00;5006024;28;8945;-78
2022/04/29 02:22:25;;;;;;;;;48.75;39.25;;;;;11.37;96.92;100085.88;4969921;28;8878;-79
2022/04/29 02:24:55;;;;;;;;;49.00;40.75;;;;;11.08;98.43;100090.06;4970171;28;8928;-79
2022/04/29 02:27:24;;;;;;;;;47.25;39.50;;;;;11.11;99.64;100091.81;4970193;28;9836;-78
2022/04/29 02:29:52;;;;;;;;;45.25;38.25;;;;;11.32;98.03;100083.22;4970214;28;8851;-79
2022/04/29 02:32:22;;;;;;;;;50.75;42.25;;;;;11.15;98.88;100095.31;4970386;28;8847;-78
2022/04/29 02:34:50;;;;;;;;;50.75;42.25;;;;;11.22;98.75;100092.75;4970831;28;8880;-78
2022/04/29 02:37:19;;;;;;;;;45.50;39.50;;;;;11.61;97.43;100083.38;4970871;28;8854;-79
2022/04/29 02:39:51;;;;;;;;;45.25;38.50;;;;;11.70;95.13;100088.63;4927128;28;8909;-79
2022/04/29 02:42:21;;;;;;;;;42.00;37.50;;;;;12.01;94.42;100077.44;4974627;28;8842;-79
2022/04/29 02:44:50;;;;;;;;;53.50;41.25;;;;;12.22;92.97;100076.59;4990098;28;8854;-79
2022/04/29 02:47:22;;;;;;;;;51.75;39.25;;;;;12.21;90.46;100080.06;4989761;28;8870;-78
2022/04/29 02:49:51;;;;;;;;;42.50;36.00;;;;;12.17;91.05;100081.81;4973400;28;8933;-78
2022/04/29 02:52:20;;;;;;;;;48.00;38.00;;;;;12.43;91.57;100078.34;5011011;28;8899;-78
2022/04/29 02:54:50;;;;;;;;;42.50;38.25;;;;;12.27;90.01;100080.09;4996270;28;8853;-79
2022/04/29 02:57:37;;;;;;;;;48.50;42.00;;;;;12.38;89.04;100080.97;5015428;28;9111;-78
2022/04/29 03:00:07;;;;;;;;;50.00;42.50;;;;;12.48;89.04;100087.94;5007582;28;8840;-78
2022/04/29 03:02:37;;;;;;;;;44.75;37.75;;;;;12.66;89.42;100089.72;5000244;28;8874;-76
2022/04/29 03:05:07;;;;;;;;;42.50;38.25;;;;;12.69;87.39;100083.59;5032281;28;8896;-78
2022/04/29 03:07:35;;;;;;;;;44.00;39.00;;;;;12.51;86.69;100087.06;5028676;28;8982;-79
2022/04/29 03:10:07;;;;;;;;;51.50;42.00;;;;;12.02;90.17;100089.63;4996005;28;8931;-78
2022/04/29 03:12:40;;;;;;;;;51.50;40.50;;;;;12.17;89.55;100091.41;4972893;28;8881;-79
2022/04/29 03:15:18;;;;;;;;;46.75;40.75;;;;;12.35;88.50;100091.44;4973330;28;8865;-78
2022/04/29 03:20:40;;;;;;;;;62.00;50.75;;;;;12.20;89.49;100084.44;4989060;28;9586;-79
2022/04/29 03:23:10;;;;;;;;;68.50;55.75;;;;;12.38;89.04;100096.66;4988844;28;8889;-79
2022/04/29 03:25:44;;;;;;;;;40.75;38.50;;;;;12.46;88.32;100094.94;5023280;28;8857;-78
2022/04/29 03:28:15;;;;;;;;;54.00;41.50;;;;;12.57;87.08;100094.94;5033478;28;8873;-78
2022/04/29 03:30:45;;;;;;;;;51.50;43.25;;;;;12.64;86.38;100096.66;5036922;28;8895;-78
2022/04/29 03:33:14;;;;;;;;;46.25;39.25;;;;;12.72;87.13;100088.84;5004701;28;8850;-78
2022/04/29 03:35:46;;;;;;;;;55.00;46.50;;;;;12.84;87.32;100096.66;5005101;28;8866;-79
2022/04/29 03:38:38;;;;;;;;;53.25;40.25;;;;;12.95;86.50;100093.16;4972778;28;8879;-78
2022/04/29 03:41:08;;;;;;;;;52.75;40.75;;;;;13.04;86.21;100095.75;4988437;28;8880;-79
2022/04/29 03:43:39;;;;;;;;;41.50;36.75;;;;;13.08;85.59;100102.75;4999774;28;9013;-79
2022/04/29 03:46:13;;;;;;;;;51.25;42.50;;;;;13.13;84.85;100103.59;5011640;28;8853;-79
2022/04/29 03:51:50;;;;;;;;;51.50;41.00;;;;;13.18;84.45;100112.31;5017400;28;8846;-78
2022/04/29 03:54:19;;;;;;;;;39.25;37.00;;;;;13.21;83.72;100111.44;5028956;28;8969;-80
2022/04/29 03:56:59;;;;;;;;;60.25;48.25;;;;;13.21;83.81;100111.44;4995529;28;8845;-78
2022/04/29 03:59:31;;;;;;;;;69.25;55.75;;;;;13.16;83.44;100110.59;5011981;28;9446;-79
2022/04/29 04:02:01;;;;;;;;;65.00;51.75;;;;;13.18;83.62;100112.31;5021992;28;8847;-78
2022/04/29 04:04:31;;;;;;;;;45.50;40.75;;;;;12.98;83.08;100111.47;5042031;28;8857;-78
2022/04/29 04:07:02;;;;;;;;;48.50;40.00;;;;;13.02;83.53;100113.22;5034530;28;8845;-79
2022/04/29 04:09:41;;;;;;;;;40.25;37.50;;;;;13.01;83.83;100117.59;5034743;28;8907;-78
2022/04/29 04:12:12;;;;;;;;;51.00;39.50;;;;;13.05;84.12;100127.19;5037807;28;9569;-78
2022/04/29 04:15:01;;;;;;;;;61.75;48.00;;;;;13.12;83.14;100124.53;5070536;28;8824;-78
2022/04/29 04:17:34;;;;;;;;;61.50;51.75;;;;;13.13;82.78;100121.91;5068522;28;8991;-78
2022/04/29 04:20:04;;;;;;;;;54.00;44.25;;;;;13.16;83.87;100116.69;5068913;28;8848;-80
2022/04/29 04:22:43;;;;;;;;;68.75;54.25;;;;;13.12;82.80;100120.19;5008393;28;8871;-79
2022/04/29 04:25:14;;;;;;;;;50.50;42.25;;;;;13.13;82.44;100129.78;5068576;28;8840;-78
2022/04/29 04:27:44;;;;;;;;;52.50;44.00;;;;;13.15;82.56;100127.16;5065111;28;8909;-79
2022/04/29 04:30:14;;;;;;;;;48.75;41.00;;;;;13.18;82.75;100121.94;5048203;28;8885;-78
2022/04/29 04:32:44;;;;;;;;;47.00;40.50;;;;;13.18;82.74;100135.03;5048433;28;8851;-78
2022/04/29 04:35:13;;;;;;;;;47.75;40.50;;;;;13.23;82.87;100131.53;5064931;28;8858;-78
2022/04/29 04:37:41;;;;;;;;;46.25;40.00;;;;;13.19;82.14;100137.63;5048678;28;8847;-78
2022/04/29 04:40:13;;;;;;;;;35.75;33.25;;;;;13.17;81.44;100130.66;5048491;28;9044;-79
2022/04/29 04:42:48;;;;;;;;;50.00;40.00;;;;;13.19;81.51;100132.38;5048507;28;8890;-78
2022/04/29 04:45:30;;;;;;;;;43.00;38.25;;;;;12.99;81.86;100137.66;5050084;28;8839;-78
2022/04/29 04:48:25;;;;;;;;;43.75;38.50;;;;;13.03;81.82;100131.53;5051649;28;8835;-79
2022/04/29 04:51:12;;;;;;;;;39.50;35.75;;;;;12.96;81.83;100144.66;5049498;28;8859;-78
2022/04/29 04:53:47;;;;;;;;;38.00;35.50;;;;;12.87;81.92;100130.69;5031258;28;8932;-78
2022/04/29 04:56:16;;;;;;;;;51.50;41.25;;;;;12.37;83.96;100136.75;5031547;28;8851;-79
2022/04/29 04:58:45;;;;;;;;;38.40;35.00;;;;;12.63;83.63;100141.16;5031752;28;8955;-79
2022/04/29 05:01:15;;;;;;;;;41.00;37.25;;;;;12.74;83.16;100142.03;5053174;28;8893;-78
2022/04/29 05:04:03;;;;;;;;;40.80;35.20;;;;;12.57;83.89;100143.75;5049108;28;9766;-78
2022/04/29 05:06:32;;;;;;;;;45.25;39.50;;;;;12.48;84.00;100145.50;5049037;28;9577;-78
2022/04/29 05:09:00;;;;;;;;;50.25;38.50;;;;;12.73;83.68;100142.91;5048187;28;8887;-80
2022/04/29 05:11:30;;;;;;;;;48.75;41.00;;;;;12.68;82.81;100137.69;5014164;28;8858;-79
2022/04/29 05:14:53;;;;;;;;;33.75;31.00;;;;;12.16;84.79;100150.66;4961481;28;8854;-78
2022/04/29 05:17:24;;;;;;;;;44.00;38.25;;;;;11.69;88.26;100141.75;4928741;28;8863;-77
2022/04/29 05:20:23;;;;;;;;;32.80;31.40;;;;;11.16;90.27;100138.84;4990794;28;8860;-81
2022/04/29 05:22:53;;;;;;;;;38.20;32.60;;;;;10.99;92.67;100144.81;4973967;28;8835;-79
2022/04/29 05:25:22;;;;;;;;;29.00;28.40;;;;;11.26;90.08;100138.91;4990241;28;9594;-78
2022/04/29 05:28:10;;;;;;;;;38.50;35.75;;;;;11.23;91.58;100148.47;4986467;28;8854;-79
2022/04/29 05:30:58;;;;;;;;;36.50;36.00;;;;;11.50;90.97;100145.13;4946561;28;8924;-78
2022/04/29 05:33:47;;;;;;;;;38.25;36.25;;;;;11.93;88.68;100139.25;4986787;28;8874;-79
2022/04/29 05:36:35;;;;;;;;;32.00;31.00;;;;;11.89;86.59;100149.72;4986396;28;9616;-80
2022/04/29 05:42:18;;;;;;;;;33.40;31.20;;;;;11.81;88.00;100153.97;4986728;28;9652;-80
2022/04/29 05:44:48;;;;;;;;;30.60;28.80;;;;;12.26;86.63;100154.16;4970706;28;8842;-79
2022/04/29 05:47:18;;;;;;;;;34.00;32.60;;;;;12.17;83.67;100157.63;4987002;28;8866;-79
2022/04/29 05:49:52;;;;;;;;;28.20;25.80;;;;;12.23;83.96;100162.91;5003328;28;8836;-78
2022/04/29 05:52:26;;;;;;;;;37.80;31.00;;;;;11.87;85.02;100156.63;5032623;28;8841;-80
2022/04/29 05:54:55;;;;;;;;;28.20;28.20;;;;;12.37;85.83;100157.69;5048894;28;8977;-79
2022/04/29 05:57:30;;;;;;;;;29.60;28.20;;;;;12.03;84.00;100159.34;5009722;28;8854;-78
2022/04/29 05:59:59;;;;;;;;;31.20;29.20;;;;;12.09;83.01;100161.97;5040665;28;8832;-79
2022/04/29 06:02:47;;;;;;;;;32.00;29.20;;;;;11.86;85.38;100164.47;5025433;28;8846;-78
2022/04/29 06:05:22;;;;;;;;;32.60;31.40;;;;;11.98;84.31;100158.44;5011218;28;9079;-80
2022/04/29 06:07:51;;;;;;;;;31.80;29.40;;;;;11.86;84.35;100161.84;4993258;28;8842;-80
2022/04/29 06:10:34;;;;;;;;;35.50;30.50;;;;;11.95;84.52;100164.53;5010610;28;8968;-79
2022/04/29 06:13:03;;;;;;;;;35.00;32.40;;;;;11.93;83.83;100160.16;5016924;28;8858;-78
2022/04/29 06:15:36;;;;;;;;;29.60;28.00;;;;;11.90;84.49;100161.91;5019671;28;8874;-79
2022/04/29 06:18:13;;;;;;;;;33.80;28.60;;;;;11.73;84.60;100165.28;5047949;28;8842;-79
2022/04/29 06:21:01;;;;;;;;;33.20;30.20;;;;;11.69;84.57;100170.47;5014180;28;8849;-79
2022/04/29 06:23:50;;;;;;;;;35.60;33.00;;;;;11.59;85.20;100171.31;5019231;28;8826;-79
2022/04/29 06:26:21;;;;;;;;;29.80;28.40;;;;;11.55;85.62;100179.09;5013244;28;9622;-79
2022/04/29 06:28:50;;;;;;;;;39.75;34.75;;;;;11.79;85.57;100174.00;5029618;28;8887;-79
2022/04/29 06:31:19;;;;;;;;;27.40;24.20;;;;;11.65;85.05;100181.78;4970470;28;8996;-80
2022/04/29 06:34:27;;;;;;;;;35.20;32.20;;;;;11.64;85.46;100174.81;4944823;28;8843;-79
2022/04/29 06:36:57;;;;;;;;;36.00;32.75;;;;;12.06;86.41;100168.06;4961805;28;8870;-78
2022/04/29 06:39:25;;;;;;;;;35.80;32.40;;;;;12.61;86.45;100172.56;4956005;28;8901;-81
2022/04/29 06:42:13;;;;;;;;;37.20;33.20;;;;;12.92;81.47;100166.47;4951389;28;8873;-78
2022/04/29 06:45:11;;;;;;;;;31.40;30.60;;;;;13.25;79.84;100166.44;4950850;28;8996;-79
2022/04/29 06:48:12;;;;;;;;;33.80;31.80;;;;;12.83;80.19;100175.19;4875151;29;8975;-80
2022/04/29 06:51:19;;;;;;;;;32.00;31.20;;;;;12.84;79.96;100175.19;4859277;29;9004;-78
2022/04/29 06:53:55;;;;;;;;;38.00;33.20;;;;;13.03;78.71;100170.81;4875346;29;9704;-79
2022/04/29 06:56:34;;;;;;;;;30.20;30.20;;;;;13.20;80.28;100168.19;4875245;29;8871;-79
2022/04/29 06:59:04;;;;;;;;;27.80;24.40;;;;;13.35;78.61;100162.09;4874935;29;9720;-79
2022/04/29 07:01:36;;;;;;;;;28.80;26.80;;;;;13.79;76.58;100162.84;4874923;29;8959;-79
2022/04/29 07:04:05;;;;;;;;;29.60;26.80;;;;;13.68;75.59;100175.97;4890586;29;8887;-79
2022/04/29 07:06:34;;;;;;;;;26.60;25.40;;;;;14.20;76.48;100172.28;4966002;28;8840;-79
2022/04/29 07:09:06;;;;;;;;;36.00;34.40;;;;;14.34;74.28;100164.31;4922385;28;8946;-79
2022/04/29 07:11:54;;;;;;;;;29.60;28.60;;;;;14.13;72.51;100163.56;4953890;28;8856;-80
2022/04/29 07:14:28;;;;;;;;;28.80;27.60;;;;;13.55;73.73;100174.25;4953824;28;8890;-79
2022/04/29 07:17:02;;;;;;;;;31.20;29.20;;;;;13.65;74.86;100171.63;4994656;28;9678;-79
2022/04/29 07:19:38;;;;;;;;;29.60;26.20;;;;;14.28;76.32;100166.97;4956809;28;8977;-78
2022/04/29 07:22:27;;;;;;;;;23.20;21.80;;;;;14.86;74.88;100163.09;4972957;28;9635;-79
2022/04/29 07:24:59;;;;;;;;;23.80;23.40;;;;;15.33;72.64;100160.06;5038845;28;8932;-80
2022/04/29 07:27:29;;;;;;;;;22.00;19.80;;;;;15.73;69.05;100153.50;5049111;28;8835;-78
2022/04/29 07:29:59;;;;;;;;;21.40;19.40;;;;;16.08;69.01;100152.19;5033129;28;9651;-79
2022/04/29 07:32:38;;;;;;;;;27.40;23.60;;;;;15.43;65.59;100163.47;5053771;28;8858;-79
2022/04/29 07:44:02;;;;;;;;;26.20;22.00;;;;;13.95;71.59;100159.28;4996566;28;8849;-79
2022/04/29 07:46:36;;;;;;;;;26.00;22.60;;;;;13.98;71.55;100163.63;5028805;28;8890;-79
2022/04/29 07:49:34;;;;;;;;;19.00;18.80;;;;;14.14;70.71;100157.44;4988676;28;8879;-78
2022/04/29 07:52:03;;;;;;;;;18.60;18.60;;;;;13.78;69.70;100153.22;4973327;28;8840;-79
2022/04/29 07:54:36;;;;;;;;;21.40;19.20;;;;;13.56;71.03;100157.66;4973035;28;8872;-80
2022/04/29 07:57:07;;;;;;;;;14.20;13.80;;;;;13.38;68.90;100156.84;4988372;28;8856;-78
2022/04/29 07:59:37;;;;;;;;;13.20;11.80;;;;;13.57;71.40;100156.78;4971415;28;8873;-78
2022/04/29 08:02:30;;;;;;;;;16.20;14.80;;;;;14.13;72.34;100149.56;4948743;28;8928;-78
2022/04/29 08:04:58;;;;;;;;;16.80;15.00;;;;;14.61;70.67;100140.56;4965551;28;8913;-80
2022/04/29 08:07:27;;;;;;;;;18.20;16.20;;;;;15.12;70.57;100137.50;4918227;28;8866;-80
2022/04/29 08:09:56;;;;;;;;;19.20;17.40;;;;;15.46;67.33;100141.53;4933886;28;8870;-79
2022/04/29 08:12:27;;;;;;;;;20.40;18.40;;;;;15.26;66.32;100131.25;4908693;28;9038;-80
2022/04/29 08:15:15;;;;;;;;;18.80;17.20;;;;;15.13;67.85;100123.47;4971572;28;8914;-79
2022/04/29 08:18:16;;;;;;;;;17.40;15.00;;;;;15.24;68.84;100131.25;4937461;28;8908;-77
2022/04/29 08:20:45;;;;;;;;;20.40;20.40;;;;;15.21;66.43;100142.63;4949025;28;8889;-78
2022/04/29 08:23:13;;;;;;;;;22.00;21.00;;;;;15.44;68.20;100138.91;4948783;28;8973;-78
2022/04/29 08:25:42;;;;;;;;;20.00;19.80;;;;;15.90;66.79;100127.88;4927463;29;8922;-79
2022/04/29 08:28:12;;;;;;;;;17.80;17.80;;;;;16.26;65.64;100130.03;4929617;29;8910;-81
2022/04/29 08:30:42;;;;;;;;;16.20;16.20;;;;;16.28;64.87;100128.25;4929660;29;8906;-78
2022/04/29 08:33:12;;;;;;;;;25.60;22.00;;;;;16.47;61.86;100120.94;4931624;28;8890;-78
2022/04/29 08:35:45;;;;;;;;;19.60;19.60;;;;;15.56;63.84;100133.53;4951167;28;8932;-78
2022/04/29 08:38:14;;;;;;;;;21.60;21.60;;;;;15.41;65.64;100138.94;4951854;28;8862;-78
2022/04/29 08:40:51;;;;;;;;;24.40;23.20;;;;;15.26;65.93;100137.34;4988754;28;8893;-78
2022/04/29 08:43:27;;;;;;;;;22.80;22.80;;;;;15.05;65.36;100132.28;4974496;28;8865;-79
2022/04/29 08:46:02;;;;;;;;;23.20;21.60;;;;;14.95;68.35;100118.38;4990740;28;9003;-76
2022/04/29 08:49:04;;;;;;;;;20.00;17.80;;;;;15.56;68.24;100130.03;4967729;28;8893;-78
2022/04/29 08:51:34;;;;;;;;;19.00;19.00;;;;;16.02;67.06;100125.97;4945387;28;8875;-77
2022/04/29 08:54:04;;;;;;;;;17.20;17.00;;;;;16.47;65.58;100124.44;4978390;28;8850;-76
2022/04/29 08:59:22;;;;;;;;;22.00;22.00;;;;;16.53;61.38;100120.84;4992952;28;8886;-78
2022/04/29 09:01:52;;;;;;;;;18.20;18.20;;;;;16.87;64.00;100115.94;4988257;28;9625;-77
2022/04/29 09:04:21;;;;;;;;;21.40;21.40;;;;;16.80;62.40;100126.56;4971226;28;8972;-77
2022/04/29 09:06:49;;;;;;;;;15.60;15.40;;;;;17.10;61.89;100112.88;4970799;28;8892;-77
2022/04/29 09:09:21;;;;;;;;;17.00;15.60;;;;;17.24;59.92;100117.91;4987221;28;8888;-78
2022/04/29 09:11:50;;;;;;;;;21.60;19.60;;;;;17.34;60.65;100108.06;4986795;28;8931;-78
2022/04/29 09:14:24;;;;;;;;;17.60;17.60;;;;;17.64;59.94;100109.22;4987299;28;8985;-78
2022/04/29 09:16:54;;;;;;;;;16.20;15.60;;;;;17.90;58.50;100106.06;4971032;28;8874;-78
2022/04/29 09:19:33;;;;;;;;;23.00;23.00;;;;;17.02;58.86;100112.16;4972901;28;8846;-77
2022/04/29 09:22:07;;;;;;;;;20.80;19.00;;;;;17.44;60.60;100101.69;4952043;28;8876;-79
2022/04/29 09:25:03;;;;;;;;;17.20;16.00;;;;;17.79;57.39;100104.50;4897572;29;8862;-78
2022/04/29 09:28:00;;;;;;;;;17.00;15.80;;;;;17.73;57.34;100103.75;4854086;29;8889;-79
2022/04/29 09:30:48;;;;;;;;;14.00;12.80;;;;;17.29;55.91;100118.69;4854106;29;8874;-78
2022/04/29 09:33:40;;;;;;;;;15.00;15.00;;;;;16.54;58.04;100105.03;4792782;29;8924;-77
2022/04/29 09:36:31;;;;;;;;;18.20;18.20;;;;;16.63;61.10;100106.63;4780950;29;8926;-78
2022/04/29 09:41:55;;;;;;;;;14.80;13.40;;;;;17.01;59.35;100105.13;4794100;29;8888;-77
2022/04/29 09:44:28;;;;;;;;;13.40;12.60;;;;;17.40;58.91;100099.16;4813862;29;8976;-77
2022/04/29 09:47:10;;;;;;;;;18.40;17.40;;;;;17.62;58.36;100100.47;4799146;29;9065;-78
2022/04/29 09:49:40;;;;;;;;;14.80;13.80;;;;;17.94;57.96;100096.31;4802496;29;8986;-76
2022/04/29 09:52:09;;;;;;;;;20.00;19.40;;;;;18.12;57.05;100097.66;4803868;29;8901;-78
2022/04/29 09:54:38;;;;;;;;;16.00;15.80;;;;;18.16;57.13;100098.47;4854184;29;8880;-77
2022/04/29 09:57:11;;;;;;;;;19.20;18.20;;;;;18.38;56.98;100094.44;4838537;29;8907;-77
2022/04/29 09:59:43;;;;;;;;;17.80;17.00;;;;;18.43;55.20;100091.66;4853886;29;8881;-76
2022/04/29 10:02:15;;;;;;;;;14.60;14.60;;;;;18.57;52.64;100099.28;4868766;29;8853;-77
2022/04/29 10:04:48;;;;;;;;;15.20;13.20;;;;;18.75;53.20;100098.81;4912740;28;8889;-76
2022/04/29 10:07:20;;;;;;;;;13.00;13.00;;;;;18.90;54.51;100097.56;4950815;28;8862;-79
2022/04/29 10:09:55;;;;;;;;;14.40;13.00;;;;;18.84;51.20;100095.09;4956026;28;8846;-80
2022/04/29 10:12:26;;;;;;;;;12.80;12.80;;;;;18.99;52.52;100097.31;5010283;28;8941;-78
2022/04/29 10:15:18;;;;;;;;;15.20;14.00;;;;;19.26;52.17;100087.81;4993136;28;9016;-80
2022/04/29 10:23:48;;;;;;;;;14.60;14.60;;;;;19.78;50.03;100074.88;5051681;28;8842;-79
2022/04/29 10:26:18;;;;;;;;;15.40;14.60;;;;;19.99;49.98;100078.66;5052381;28;8842;-78
2022/04/29 10:28:48;;;;;;;;;16.20;15.40;;;;;19.96;48.58;100070.81;5052683;28;8915;-77
2022/04/29 10:31:21;;;;;;;;;23.40;21.80;;;;;19.95;49.54;100070.88;5052416;28;8874;-79
2022/04/29 10:33:52;;;;;;;;;15.00;15.00;;;;;19.98;49.25;100078.69;5067452;28;8854;-78
2022/04/29 10:36:24;;;;;;;;;21.80;19.80;;;;;19.82;48.20;100073.88;5061882;28;8980;-77
2022/04/29 10:39:01;;;;;;;;;14.80;14.80;;;;;19.95;49.71;100071.72;5051884;28;8862;-77
2022/04/29 10:41:31;;;;;;;;;16.80;14.60;;;;;19.91;49.29;100075.38;5049602;28;8854;-78
2022/04/29 10:44:05;;;;;;;;;17.00;15.40;;;;;19.95;49.06;100068.22;5050297;28;8853;-77
2022/04/29 10:46:35;;;;;;;;;16.20;16.00;;;;;19.92;48.14;100063.88;5033270;28;8893;-78
2022/04/29 10:49:35;;;;;;;;;19.80;16.60;;;;;20.05;49.37;100062.56;5048005;28;8889;-78
2022/04/29 10:52:35;;;;;;;;;18.40;18.00;;;;;18.99;48.82;100073.53;4950219;28;8874;-79
2022/04/29 10:55:23;;;;;;;;;23.20;21.60;;;;;18.56;50.47;100079.88;4950203;28;9549;-79
2022/04/29 10:58:18;;;;;;;;;17.40;17.40;;;;;18.40;53.69;100073.28;4934529;28;8900;-77
2022/04/29 11:00:56;;;;;;;;;21.40;19.20;;;;;18.69;52.97;100067.25;4933831;28;8859;-80
2022/04/29 11:03:38;;;;;;;;;17.40;17.00;;;;;18.80;52.46;100064.34;4930758;29;9622;-79
2022/04/29 11:06:10;;;;;;;;;16.00;15.60;;;;;18.95;52.01;100065.75;4934592;28;9029;-79
2022/04/29 11:08:39;;;;;;;;;19.20;18.40;;;;;19.05;51.71;100062.81;4966253;28;8906;-77
2022/04/29 11:11:08;;;;;;;;;21.40;20.00;;;;;18.81;52.21;100061.69;4950356;28;8949;-77
2022/04/29 11:14:10;;;;;;;;;18.80;18.80;;;;;19.14;52.00;100051.13;4881827;29;8909;-76
2022/04/29 11:17:07;;;;;;;;;20.00;19.00;;;;;19.29;50.91;100048.03;4893778;29;9611;-78
2022/04/29 11:19:45;;;;;;;;;21.00;20.20;;;;;18.93;52.29;100054.34;4862491;29;8897;-78
2022/04/29 11:25:07;;;;;;;;;20.00;18.60;;;;;19.19;50.26;100043.06;4893457;29;9016;-78
2022/04/29 11:27:39;;;;;;;;;18.80;17.40;;;;;19.14;49.53;100042.31;4906762;28;9535;-77
2022/04/29 11:30:26;;;;;;;;;18.20;17.60;;;;;19.03;49.97;100045.25;4968936;28;8857;-77
2022/04/29 11:32:55;;;;;;;;;16.60;16.60;;;;;19.00;50.32;100037.44;4969221;28;9097;-79
2022/04/29 11:35:24;;;;;;;;;21.40;19.80;;;;;19.03;50.41;100037.31;4974903;28;8854;-77
2022/04/29 11:37:54;;;;;;;;;17.60;16.40;;;;;19.21;49.80;100033.31;4974329;28;8842;-77
2022/04/29 11:40:27;;;;;;;;;21.40;20.80;;;;;19.42;50.19;100037.97;5006666;28;8893;-77
2022/04/29 11:42:55;;;;;;;;;21.20;20.60;;;;;19.69;53.31;100024.84;4991542;28;8844;-76
2022/04/29 11:45:25;;;;;;;;;20.00;19.20;;;;;19.94;50.30;100017.03;4991451;28;8860;-78
2022/04/29 11:48:04;;;;;;;;;22.00;21.40;;;;;20.21;50.51;100017.94;5007602;28;8990;-78
2022/04/29 11:50:38;;;;;;;;;20.00;19.40;;;;;20.51;47.35;100014.31;5037137;28;8829;-77
2022/04/29 11:53:10;;;;;;;;;16.00;15.60;;;;;20.99;47.32;100016.22;5072113;28;9005;-78
2022/04/29 11:55:39;;;;;;;;;17.60;15.20;;;;;21.05;45.75;100009.81;5067783;28;8852;-78
2022/04/29 11:58:09;;;;;;;;;14.60;14.60;;;;;20.48;44.14;100006.47;4990927;28;8880;-78
2022/04/29 12:00:37;;;;;;;;;11.40;11.40;;;;;20.16;45.92;100014.56;5007531;28;8864;-76
2022/04/29 12:03:07;;;;;;;;;15.40;15.20;;;;;20.44;45.39;100008.38;5007648;28;8868;-77
2022/04/29 12:05:35;;;;;;;;;16.60;16.60;;;;;20.74;47.02;99995.88;5010146;28;9688;-76
2022/04/29 12:08:14;;;;;;;;;16.00;15.80;;;;;21.13;45.70;99999.78;5017950;28;8990;-77
2022/04/29 12:10:50;;;;;;;;;19.80;19.80;;;;;21.55;44.68;99992.06;5011201;28;8935;-79
2022/04/29 12:13:20;;;;;;;;;20.80;19.80;;;;;22.02;42.90;99995.53;5026952;28;8865;-79
2022/04/29 12:15:55;;;;;;;;;20.00;19.20;;;;;22.56;42.72;99986.22;5010130;28;8853;-77
2022/04/29 12:18:41;;;;;;;;;23.00;21.60;;;;;23.04;41.82;99986.81;5010444;28;8845;-78
2022/04/29 12:21:10;;;;;;;;;20.40;20.00;;;;;23.11;39.79;99983.81;5010300;28;8992;-78
2022/04/29 12:23:44;;;;;;;;;19.80;18.80;;;;;23.69;43.01;99968.72;4962485;28;8853;-78